createdAt,value
2023-12-27T00:03:07.731Z,44.94
2023-12-27T00:08:09.878Z,42.39
2023-12-27T00:13:11.552Z,44.65
2023-12-27T00:18:13.568Z,46.25
2023-12-27T00:23:15.367Z,44.47
2023-12-27T00:28:17.058Z,44.27
2023-12-27T00:33:19.690Z,42.60
2023-12-27T00:38:21.397Z,43.19
2023-12-27T00:43:23.053Z,48.48
2023-12-27T00:48:24.936Z,46.08
2023-12-27T00:53:26.680Z,46.93
2023-12-27T00:58:28.396Z,49.05
2023-12-27T01:03:30.194Z,44.96
2023-12-27T01:08:31.858Z,42.79
2023-12-27T01:13:33.670Z,44.52
2023-12-27T01:18:35.617Z,43.50
2023-12-27T01:23:37.469Z,45.91
2023-12-27T01:28:39.119Z,46.65
2023-12-27T01:33:42.412Z,47.02
2023-12-27T01:38:44.194Z,46.63
2023-12-27T01:43:45.941Z,46.33
2023-12-27T01:48:47.702Z,46.28
2023-12-27T01:53:50.523Z,45.57
2023-12-27T01:58:52.170Z,43.86
2023-12-27T02:03:53.992Z,44.31
2023-12-27T02:08:55.945Z,43.88
2023-12-27T02:13:57.706Z,41.81
2023-12-27T02:19:01.720Z,42.68
2023-12-27T02:24:04.943Z,42.08
2023-12-27T02:29:06.648Z,42.23
2023-12-27T02:34:08.519Z,42.08
2023-12-27T02:39:10.391Z,41.95
2023-12-27T02:44:12.090Z,46.21
2023-12-27T02:49:13.952Z,46.76
2023-12-27T02:54:16.142Z,41.29
2023-12-27T02:59:17.871Z,40.92
2023-12-27T03:04:19.670Z,39.95
2023-12-27T03:09:21.349Z,40.96
2023-12-27T03:14:23.024Z,41.45
2023-12-27T03:19:26.460Z,40.68
2023-12-27T03:24:28.390Z,42.37
2023-12-27T03:29:30.181Z,39.71
2023-12-27T03:34:32.155Z,41.81
2023-12-27T03:39:33.964Z,41.05
2023-12-27T03:44:35.733Z,42.14
2023-12-27T03:49:37.707Z,46.16
2023-12-27T03:54:39.851Z,43.64
2023-12-27T03:59:42.216Z,42.06
2023-12-27T04:04:44.135Z,42.12
2023-12-27T04:09:45.913Z,41.29
2023-12-27T04:14:47.750Z,41.21
2023-12-27T04:19:49.501Z,40.54
2023-12-27T04:24:51.202Z,41.59
2023-12-27T04:29:52.862Z,40.14
2023-12-27T04:34:54.579Z,41.15
2023-12-27T04:39:56.270Z,40.42
2023-12-27T04:44:58.010Z,39.53
2023-12-27T04:49:59.954Z,40.18
2023-12-27T04:55:01.879Z,40.41
2023-12-27T05:00:05.396Z,41.76
2023-12-27T05:05:08.843Z,42.53
2023-12-27T05:10:10.680Z,39.63
2023-12-27T05:15:12.453Z,38.32
2023-12-27T05:20:14.582Z,38.38
2023-12-27T05:25:16.344Z,39.46
2023-12-27T05:30:18.489Z,39.42
2023-12-27T05:35:20.312Z,42.29
2023-12-27T05:40:22.004Z,42.85
2023-12-27T05:45:23.996Z,41.94
2023-12-27T05:50:25.720Z,41.06
2023-12-27T05:55:27.375Z,40.26
2023-12-27T06:00:29.214Z,39.21
2023-12-27T06:05:31.088Z,40.39
2023-12-27T06:10:33.308Z,40.19
2023-12-27T06:15:35.023Z,38.86
2023-12-27T06:20:36.920Z,40.00
2023-12-27T06:25:38.653Z,40.58
2023-12-27T06:30:40.375Z,38.36
2023-12-27T06:35:42.961Z,39.05
2023-12-27T06:40:44.640Z,38.13
2023-12-27T06:45:46.461Z,38.20
2023-12-27T06:50:49.673Z,38.99
2023-12-27T06:55:51.391Z,38.20
2023-12-27T07:00:53.185Z,39.47
2023-12-27T07:05:55.089Z,39.18
2023-12-27T07:10:57.014Z,38.36
2023-12-27T07:15:59.128Z,38.51
2023-12-27T07:21:00.922Z,39.49
2023-12-27T07:26:02.762Z,39.85
2023-12-27T07:31:04.965Z,39.04
2023-12-27T07:36:08.272Z,38.86
2023-12-27T07:41:10.083Z,40.15
2023-12-27T07:46:11.967Z,39.91
2023-12-27T07:51:13.695Z,39.45
2023-12-27T07:56:16.931Z,38.24
2023-12-27T08:01:22.349Z,37.85
2023-12-27T08:06:27.639Z,38.46
2023-12-27T08:11:29.347Z,38.57
2023-12-27T08:16:31.041Z,39.08
2023-12-27T08:21:32.701Z,39.74
2023-12-27T08:26:34.377Z,39.12
2023-12-27T08:31:36.172Z,40.80
2023-12-27T08:36:38.084Z,41.83
2023-12-27T08:41:39.818Z,40.06
2023-12-27T08:46:41.523Z,41.86
2023-12-27T08:51:43.202Z,42.99
2023-12-27T08:56:44.962Z,40.90
2023-12-27T09:01:46.612Z,43.08
2023-12-27T09:06:48.409Z,41.27
2023-12-27T09:11:50.126Z,43.86
2023-12-27T09:16:51.816Z,40.82
2023-12-27T09:21:53.460Z,41.74
2023-12-27T09:26:55.109Z,44.75
2023-12-27T09:31:57.317Z,44.00
2023-12-27T09:36:59.134Z,43.38
2023-12-27T09:42:01.004Z,45.27
2023-12-27T09:47:03.930Z,42.49
2023-12-27T09:52:06.563Z,42.50
2023-12-27T09:57:08.709Z,41.67
2023-12-27T10:02:17.574Z,42.07
2023-12-27T10:07:22.447Z,43.49
2023-12-27T10:12:25.442Z,45.45
2023-12-27T10:17:28.650Z,43.19
2023-12-27T10:22:30.815Z,40.91
2023-12-27T10:27:32.628Z,42.09
2023-12-27T10:32:34.583Z,40.06
2023-12-27T10:37:38.968Z,42.26
2023-12-27T10:42:42.770Z,40.60
2023-12-27T10:47:47.607Z,40.39
2023-12-27T10:53:00.703Z,41.50
2023-12-27T10:58:04.424Z,40.71
2023-12-27T11:06:18.978Z,43.64
2023-12-27T11:11:22.955Z,45.73
2023-12-27T11:16:28.683Z,42.96
2023-12-27T11:21:30.917Z,42.33
2023-12-27T11:26:37.693Z,41.60
2023-12-27T11:31:40.448Z,43.55
2023-12-27T11:36:45.697Z,41.81
2023-12-27T11:41:48.924Z,43.20
2023-12-27T11:46:50.661Z,41.40
2023-12-27T11:51:52.934Z,42.61
2023-12-27T11:56:55.350Z,41.35
2023-12-27T12:01:59.744Z,43.20
2023-12-27T12:07:21.086Z,43.29
2023-12-27T12:12:24.327Z,40.17
2023-12-27T12:17:28.384Z,40.98
2023-12-27T12:22:31.368Z,41.08
2023-12-27T12:27:33.112Z,40.04
2023-12-27T12:32:40.946Z,40.43
2023-12-27T12:37:42.873Z,40.00
2023-12-27T12:42:45.710Z,39.74
2023-12-27T12:47:47.771Z,39.20
2023-12-27T12:52:50.521Z,38.83
2023-12-27T12:57:53.232Z,38.59
2023-12-27T13:02:55.251Z,39.00
2023-12-27T13:07:57.140Z,38.48
2023-12-27T13:12:59.054Z,38.64
2023-12-27T13:18:01.168Z,37.65
2023-12-27T13:23:03.622Z,38.57
2023-12-27T13:28:09.563Z,38.68
2023-12-27T13:33:13.916Z,40.85
2023-12-27T13:38:16.246Z,38.98
2023-12-27T13:43:18.127Z,41.64
2023-12-27T13:48:22.471Z,41.74
2023-12-27T13:53:24.590Z,40.57
2023-12-27T13:58:26.388Z,41.90
2023-12-27T14:03:31.785Z,42.84
2023-12-27T14:08:34.003Z,41.58
2023-12-27T14:13:35.744Z,40.21
2023-12-27T14:18:37.581Z,39.54
2023-12-27T14:23:39.389Z,39.72
2023-12-27T14:28:41.350Z,39.18
2023-12-27T14:33:45.039Z,40.23
2023-12-27T14:38:46.962Z,38.03
2023-12-27T14:43:48.868Z,40.64
2023-12-27T14:48:50.639Z,39.95
2023-12-27T14:53:52.398Z,39.58
2023-12-27T14:58:54.126Z,39.89
2023-12-27T15:03:55.949Z,39.68
2023-12-27T15:08:58.680Z,38.58
2023-12-27T15:14:00.528Z,40.72
2023-12-27T15:19:02.494Z,39.66
2023-12-27T15:24:04.573Z,38.60
2023-12-27T15:29:06.329Z,38.26
2023-12-27T15:34:09.373Z,40.05
2023-12-27T15:39:11.322Z,38.09
2023-12-27T15:44:13.643Z,38.61
2023-12-27T15:49:15.657Z,39.30
2023-12-27T15:54:17.781Z,38.53
2023-12-27T15:59:20.704Z,38.00
2023-12-27T16:04:22.730Z,37.90
2023-12-27T16:09:24.666Z,37.87
2023-12-27T16:14:26.372Z,38.10
2023-12-27T16:19:28.366Z,39.84
2023-12-27T16:24:30.176Z,38.57
2023-12-27T16:29:32.669Z,39.20
2023-12-27T16:34:34.490Z,40.07
2023-12-27T16:39:36.358Z,39.04
2023-12-27T16:44:38.238Z,39.27
2023-12-27T16:49:40.026Z,38.50
2023-12-27T16:54:41.954Z,39.55
2023-12-27T16:59:43.780Z,38.61
2023-12-27T17:04:45.546Z,38.45
2023-12-27T17:09:49.379Z,38.39
2023-12-27T17:14:52.874Z,40.66
2023-12-27T17:19:54.562Z,40.37
2023-12-27T17:24:56.401Z,40.01
2023-12-27T17:29:58.103Z,40.04
2023-12-27T17:34:59.767Z,42.33
2023-12-27T17:40:01.958Z,42.34
2023-12-27T17:45:05.196Z,43.35
2023-12-27T17:50:08.147Z,42.58
2023-12-27T17:55:09.865Z,42.48
2023-12-27T18:00:13.559Z,44.56
2023-12-27T18:05:15.378Z,43.94
2023-12-27T18:10:17.196Z,44.62
2023-12-27T18:15:18.947Z,43.47
2023-12-27T18:20:20.980Z,41.98
2023-12-27T18:25:22.732Z,41.84
2023-12-27T18:30:24.921Z,41.21
2023-12-27T18:35:26.859Z,44.28
2023-12-27T18:40:28.798Z,44.82
2023-12-27T18:45:30.495Z,42.74
2023-12-27T18:50:32.335Z,48.65
2023-12-27T18:55:34.386Z,48.09
2023-12-27T19:00:36.081Z,45.59
2023-12-27T19:05:37.844Z,44.86
2023-12-27T19:10:39.531Z,45.17
2023-12-27T19:15:41.326Z,43.12
2023-12-27T19:20:43.140Z,44.49
2023-12-27T19:25:44.839Z,47.64
2023-12-27T19:30:47.996Z,48.70
2023-12-27T19:35:49.779Z,44.64
2023-12-27T19:40:51.533Z,46.67
2023-12-27T19:45:53.363Z,51.46
2023-12-27T19:50:56.093Z,51.34
2023-12-27T19:55:57.817Z,50.22
2023-12-27T20:01:00.650Z,43.25
2023-12-27T20:06:05.587Z,43.67
2023-12-27T20:11:07.569Z,42.66
2023-12-27T20:16:09.523Z,44.73
2023-12-27T20:21:11.259Z,46.48
2023-12-27T20:26:13.166Z,46.23
2023-12-27T20:31:15.025Z,45.62
2023-12-27T20:36:16.889Z,44.77
2023-12-27T20:41:20.692Z,44.92
2023-12-27T20:46:22.395Z,45.15
2023-12-27T20:51:24.130Z,45.64
2023-12-27T20:56:25.882Z,44.64
2023-12-27T21:01:27.679Z,45.22
2023-12-27T21:06:29.501Z,43.87
2023-12-27T21:11:38.033Z,44.43
2023-12-27T21:16:41.070Z,44.34
2023-12-27T21:21:46.034Z,43.38
2023-12-27T21:26:47.970Z,44.19
2023-12-27T21:31:49.751Z,43.87
2023-12-27T21:36:52.176Z,43.58
2023-12-27T21:41:55.317Z,43.09
2023-12-27T21:46:57.034Z,42.25
2023-12-27T21:51:58.901Z,43.30
2023-12-27T21:57:00.650Z,41.48
2023-12-27T22:02:02.716Z,41.94
2023-12-27T22:07:06.695Z,40.68
2023-12-27T22:12:10.198Z,40.47
2023-12-27T22:17:12.079Z,41.88
2023-12-27T22:22:14.420Z,42.40
2023-12-27T22:27:16.181Z,41.51
2023-12-27T22:32:17.858Z,41.37
2023-12-27T22:37:19.591Z,41.79
2023-12-27T22:42:21.356Z,39.87
2023-12-27T22:47:25.993Z,38.68
2023-12-27T22:52:27.888Z,38.44
2023-12-27T22:57:29.599Z,40.99
2023-12-27T23:02:31.992Z,39.52
2023-12-27T23:07:33.828Z,42.60
2023-12-27T23:12:35.661Z,40.51
2023-12-27T23:17:40.234Z,42.00
2023-12-27T23:22:42.074Z,39.35
2023-12-27T23:27:43.840Z,39.66
2023-12-27T23:32:51.015Z,42.72
2023-12-27T23:37:53.692Z,42.75
2023-12-27T23:42:55.399Z,43.29
2023-12-27T23:47:57.412Z,40.30
2023-12-27T23:52:59.329Z,41.24
2023-12-27T23:58:01.264Z,41.33
